Time;durP1;ratioP1;P1;durP2;ratioP2;P2;SDS_P1;SDS_P2;PMS_P1;PMS_P2;Temp;Humidity;BMP_temperature;BMP_pressure;BME280_temperature;BME280_humidity;BME280_pressure;Samples;Min_cycle;Max_cycle;Signal;HPM_P1;HPM_P2
2022/06/12 00:02:00;;;;;;;5.90;3.60;;;16.80;93.20;;;;;;5027089;28;20487;-67
2022/06/12 00:04:27;;;;;;;7.17;3.40;;;16.80;93.20;;;;;;5028601;28;20510;-67
2022/06/12 00:06:55;;;;;;;22.40;4.27;;;16.70;93.20;;;;;;5029812;28;20487;-67
2022/06/12 00:09:22;;;;;;;4.30;3.30;;;16.60;93.20;;;;;;5027040;28;20482;-67
2022/06/12 00:11:49;;;;;;;7.60;3.33;;;16.50;93.40;;;;;;5027405;28;20856;-67
2022/06/12 00:14:16;;;;;;;12.23;3.40;;;16.40;93.90;;;;;;5028555;28;20494;-67
2022/06/12 00:16:45;;;;;;;3.80;3.40;;;16.30;93.70;;;;;;5028110;28;20483;-67
2022/06/12 00:19:13;;;;;;;3.40;3.10;;;16.40;93.60;;;;;;5025762;28;20987;-66
2022/06/12 00:21:41;;;;;;;8.10;3.60;;;16.40;93.40;;;;;;5026350;28;20481;-66
2022/06/12 00:24:12;;;;;;;4.30;3.90;;;16.40;93.30;;;;;;5026649;28;20926;-67
2022/06/12 00:26:41;;;;;;;6.50;3.70;;;16.40;93.20;;;;;;5027312;28;20567;-67
2022/06/12 00:29:10;;;;;;;12.60;3.70;;;16.50;93.40;;;;;;5026469;28;20467;-68
2022/06/12 00:31:40;;;;;;;11.00;4.30;;;16.40;93.50;;;;;;5027847;28;20502;-67
2022/06/12 00:34:07;;;;;;;3.10;2.80;;;16.40;93.70;;;;;;5021321;28;20480;-68
2022/06/12 00:36:34;;;;;;;4.80;4.03;;;16.50;93.60;;;;;;5028984;28;20769;-67
2022/06/12 00:39:01;;;;;;;4.27;3.87;;;16.40;93.50;;;;;;5024163;28;20963;-67
2022/06/12 00:41:29;;;;;;;6.83;3.47;;;16.50;93.20;;;;;;5014861;28;20476;-68
2022/06/12 00:43:56;;;;;;;3.63;3.33;;;16.40;92.90;;;;;;5027891;28;21027;-67
2022/06/12 00:46:46;;;;;;;5.50;3.57;;;16.40;93.10;;;;;;5025867;28;20480;-67
2022/06/12 00:49:16;;;;;;;3.87;3.50;;;16.40;93.10;;;;;;5025735;28;20467;-67
2022/06/12 00:51:48;;;;;;;4.10;3.63;;;16.40;93.10;;;;;;5026992;28;20474;-67
2022/06/12 00:54:15;;;;;;;13.20;4.50;;;16.30;93.20;;;;;;5028039;28;20658;-67
2022/06/12 00:56:47;;;;;;;6.10;3.90;;;16.20;93.30;;;;;;5026522;28;20490;-67
2022/06/12 00:59:19;;;;;;;5.77;4.30;;;16.20;93.20;;;;;;5026625;28;21258;-67
2022/06/12 01:01:49;;;;;;;4.70;3.63;;;15.90;93.50;;;;;;5027240;28;20484;-66
2022/06/12 01:07:05;;;;;;;6.83;4.10;;;15.90;93.50;;;;;;5027853;28;20490;-67
2022/06/12 01:09:38;;;;;;;5.03;4.50;;;15.80;93.80;;;;;;5025220;28;21270;-67
2022/06/12 01:12:11;;;;;;;14.03;4.10;;;15.60;94.10;;;;;;5014779;28;20484;-67
2022/06/12 01:14:42;;;;;;;6.10;4.70;;;15.70;94.00;;;;;;5000165;28;20476;-68
2022/06/12 01:17:10;;;;;;;4.83;4.23;;;;;;;;;;5026650;28;20802;-67
2022/06/12 01:19:41;;;;;;;6.77;4.60;;;15.70;94.20;;;;;;5025324;28;20472;-67
2022/06/12 01:22:52;;;;;;;7.37;4.23;;;15.70;94.20;;;;;;5028376;28;20479;-67
2022/06/12 01:26:05;;;;;;;5.97;5.00;;;15.70;94.10;;;;;;5025405;28;20485;-67
2022/06/12 01:28:44;;;;;;;5.97;4.27;;;;;;;;;;5026036;28;20472;-67
2022/06/12 01:31:20;;;;;;;7.20;5.13;;;15.60;95.00;;;;;;5000089;28;20468;-67
2022/06/12 01:33:56;;;;;;;10.00;5.43;;;15.50;94.50;;;;;;5026826;28;21257;-66
2022/06/12 01:36:29;;;;;;;9.43;6.30;;;15.60;94.10;;;;;;5025663;28;20482;-67
2022/06/12 01:39:03;;;;;;;7.93;6.33;;;15.50;94.10;;;;;;5032903;28;20495;-67
2022/06/12 01:41:35;;;;;;;15.90;4.80;;;15.50;94.10;;;;;;5035065;28;20488;-67
2022/06/12 01:44:14;;;;;;;4.87;4.43;;;15.40;94.10;;;;;;5035028;28;20483;-67
2022/06/12 01:46:47;;;;;;;8.70;4.13;;;15.40;94.30;;;;;;5036394;28;20589;-67
2022/06/12 01:49:21;;;;;;;6.40;5.13;;;15.40;94.20;;;;;;5022853;28;20482;-66
2022/06/12 01:51:55;;;;;;;7.30;4.57;;;15.50;94.30;;;;;;5035410;28;20503;-67
2022/06/12 01:54:28;;;;;;;6.47;4.87;;;15.50;94.10;;;;;;5035813;28;20492;-67
2022/06/12 01:57:00;;;;;;;15.53;6.40;;;15.50;93.70;;;;;;5035066;28;20503;-67
2022/06/12 01:59:38;;;;;;;14.90;7.20;;;15.50;94.00;;;;;;5034237;28;20485;-67
2022/06/12 02:02:13;;;;;;;10.03;6.17;;;15.60;93.80;;;;;;5038190;28;20553;-67
2022/06/12 02:04:47;;;;;;;14.53;5.50;;;15.60;93.70;;;;;;5033435;28;20478;-67
2022/06/12 02:07:20;;;;;;;5.53;4.50;;;15.60;94.10;;;;;;5007352;28;20484;-66
2022/06/12 02:09:54;;;;;;;6.03;3.70;;;15.60;94.10;;;;;;5033509;28;20486;-67
2022/06/12 02:15:17;;;;;;;16.87;5.10;;;15.50;93.80;;;;;;5015657;28;20597;-67
2022/06/12 02:17:50;;;;;;;6.17;4.37;;;15.40;93.90;;;;;;5038418;28;20506;-67
2022/06/12 02:20:20;;;;;;;7.50;5.00;;;15.20;94.20;;;;;;5004631;28;20987;-67
2022/06/12 02:22:50;;;;;;;6.10;4.47;;;15.10;94.40;;;;;;5041815;28;20475;-67
2022/06/12 02:25:22;;;;;;;9.60;5.53;;;15.00;94.50;;;;;;5019263;28;20471;-67
2022/06/12 02:27:57;;;;;;;11.30;4.60;;;15.00;94.60;;;;;;5040608;28;20495;-66
2022/06/12 02:30:30;;;;;;;9.10;7.00;;;15.00;94.80;;;;;;5039146;28;20475;-67
2022/06/12 02:33:01;;;;;;;12.87;4.90;;;15.00;94.80;;;;;;5040130;28;20492;-66
2022/06/12 02:35:31;;;;;;;13.33;8.93;;;15.10;94.90;;;;;;5040909;28;20598;-67
2022/06/12 02:38:00;;;;;;;6.67;5.43;;;;;;;;;;5040441;28;20481;-67
2022/06/12 02:40:31;;;;;;;19.60;10.43;;;15.00;94.50;;;;;;5037431;28;20486;-67
2022/06/12 02:43:06;;;;;;;8.50;5.90;;;15.00;94.50;;;;;;5043668;28;20487;-67
2022/06/12 02:45:38;;;;;;;14.90;6.30;;;14.80;95.20;;;;;;5040747;28;20483;-67
2022/06/12 02:48:07;;;;;;;6.53;4.97;;;14.70;95.70;;;;;;5040568;28;20479;-67
2022/06/12 02:50:45;;;;;;;9.37;6.87;;;14.80;95.40;;;;;;5038470;28;20494;-67
2022/06/12 02:53:22;;;;;;;9.60;5.33;;;14.80;95.10;;;;;;5035908;28;20471;-67
2022/06/12 02:55:57;;;;;;;9.30;5.10;;;14.80;94.90;;;;;;5038912;28;20879;-67
2022/06/12 02:58:33;;;;;;;11.97;7.20;;;14.80;95.20;;;;;;5029244;28;20841;-66
2022/06/12 03:01:06;;;;;;;9.23;6.17;;;14.60;95.60;;;;;;5039390;28;20829;-66
2022/06/12 03:03:41;;;;;;;12.40;7.97;;;14.50;96.10;;;;;;5040185;28;20496;-67
2022/06/12 03:06:08;;;;;;;8.67;5.00;;;14.60;95.80;;;;;;5037942;28;20483;-66
2022/06/12 03:08:38;;;;;;;12.30;7.80;;;14.60;95.50;;;;;;5028033;28;20482;-67
2022/06/12 03:11:09;;;;;;;12.57;6.20;;;14.70;95.30;;;;;;5040852;28;20475;-67
2022/06/12 03:13:37;;;;;;;14.07;8.13;;;14.70;95.10;;;;;;5017035;28;20907;-67
2022/06/12 03:16:16;;;;;;;15.27;5.03;;;14.60;95.20;;;;;;5036268;28;20490;-67
2022/06/12 03:18:48;;;;;;;8.47;5.23;;;14.60;95.30;;;;;;5036928;28;20487;-67
2022/06/12 03:21:23;;;;;;;10.53;4.53;;;14.60;95.50;;;;;;5034805;28;20533;-67
2022/06/12 03:24:35;;;;;;;6.30;4.77;;;14.70;95.10;;;;;;5035074;28;20486;-67
2022/06/12 03:27:27;;;;;;;7.13;5.70;;;14.60;95.30;;;;;;5011707;28;20474;-67
2022/06/12 03:30:05;;;;;;;7.07;5.33;;;14.40;96.20;;;;;;5039274;28;20474;-67
2022/06/12 03:32:41;;;;;;;16.10;9.80;;;14.40;95.90;;;;;;5037973;28;20474;-66
2022/06/12 03:35:18;;;;;;;13.57;5.80;;;14.50;96.00;;;;;;5038086;28;20545;-67
2022/06/12 03:37:56;;;;;;;6.43;4.70;;;14.50;95.80;;;;;;5019882;28;20476;-67
2022/06/12 03:40:31;;;;;;;7.33;5.00;;;14.60;96.00;;;;;;5030450;28;20484;-67
2022/06/12 03:43:06;;;;;;;7.10;5.60;;;14.60;96.40;;;;;;5038201;28;20516;-66
2022/06/12 03:45:43;;;;;;;11.70;7.50;;;14.60;96.60;;;;;;5034009;28;20862;-67
2022/06/12 03:48:22;;;;;;;8.23;4.50;;;14.60;96.50;;;;;;5043232;28;20533;-67
2022/06/12 03:50:58;;;;;;;6.97;5.53;;;14.70;96.60;;;;;;5033128;28;20483;-67
2022/06/12 03:53:35;;;;;;;13.57;8.40;;;14.70;96.70;;;;;;5040212;28;20474;-67
2022/06/12 03:58:58;;;;;;;14.90;8.70;;;14.70;96.80;;;;;;5038683;28;20490;-67
2022/06/12 04:01:26;;;;;;;11.90;5.87;;;14.70;97.30;;;;;;5034463;28;20471;-67
2022/06/12 04:03:57;;;;;;;6.77;5.30;;;14.80;97.10;;;;;;5039942;28;20489;-67
2022/06/12 04:06:27;;;;;;;16.67;6.97;;;14.90;97.40;;;;;;5035850;28;20487;-67
2022/06/12 04:08:56;;;;;;;10.27;7.60;;;15.00;97.40;;;;;;5038066;28;20494;-67
2022/06/12 04:11:26;;;;;;;11.60;7.50;;;15.10;97.40;;;;;;5039482;28;20480;-67
2022/06/12 04:13:53;;;;;;;14.20;5.53;;;15.30;97.00;;;;;;5036702;28;20690;-67
2022/06/12 04:16:25;;;;;;;7.40;6.30;;;15.30;97.00;;;;;;5035045;28;20472;-67
2022/06/12 04:18:55;;;;;;;11.33;6.07;;;15.40;96.60;;;;;;5026074;28;20842;-67
2022/06/12 04:21:28;;;;;;;10.90;6.60;;;15.40;97.00;;;;;;5039945;28;21159;-67
2022/06/12 04:24:03;;;;;;;9.27;5.40;;;15.40;97.60;;;;;;5040539;28;20492;-67
2022/06/12 04:26:34;;;;;;;14.63;8.80;;;15.40;97.60;;;;;;5038242;28;20479;-67
2022/06/12 04:29:04;;;;;;;14.07;7.87;;;15.50;97.40;;;;;;5030152;28;20524;-67
2022/06/12 04:31:33;;;;;;;26.60;10.03;;;15.60;97.80;;;;;;5032619;28;20551;-67
2022/06/12 04:37:15;;;;;;;4.87;4.10;;;15.80;97.70;;;;;;5020029;27;20814;-58
2022/06/12 04:39:44;;;;;;;3.53;3.23;;;15.80;97.70;;;;;;5010419;28;20484;-58
2022/06/12 04:42:13;;;;;;;5.60;4.17;;;16.00;97.10;;;;;;5015321;28;20472;-58
2022/06/12 04:44:40;;;;;;;3.90;3.60;;;16.00;97.30;;;;;;5002008;28;20480;-58
2022/06/12 04:47:10;;;;;;;7.40;4.30;;;16.00;97.50;;;;;;4996176;28;20555;-58
2022/06/12 04:49:39;;;;;;;5.17;4.77;;;16.10;97.70;;;;;;5029569;28;20472;-57
2022/06/12 04:52:08;;;;;;;6.70;4.20;;;16.10;97.70;;;;;;4993043;28;20497;-58
2022/06/12 04:54:40;;;;;;;5.83;5.33;;;16.20;97.70;;;;;;5009904;28;20479;-58
2022/06/12 04:57:08;;;;;;;7.00;4.10;;;16.30;97.70;;;;;;5019358;28;20476;-58
2022/06/12 04:59:36;;;;;;;5.50;4.40;;;16.30;97.70;;;;;;5014040;28;20487;-58
2022/06/12 05:02:04;;;;;;;7.33;4.40;;;16.40;98.00;;;;;;5011620;28;20977;-58
2022/06/12 05:04:32;;;;;;;6.03;5.10;;;16.50;97.90;;;;;;5018757;28;20830;-58
2022/06/12 05:06:59;;;;;;;8.93;5.17;;;16.60;98.30;;;;;;5015104;28;20472;-56
2022/06/12 05:09:29;;;;;;;6.37;5.10;;;16.50;98.90;;;;;;5012600;28;20484;-56
2022/06/12 05:11:57;;;;;;;4.93;4.00;;;16.50;99.10;;;;;;5016797;28;20488;-56
2022/06/12 05:14:24;;;;;;;6.33;5.83;;;16.60;98.90;;;;;;5010782;28;20894;-57
2022/06/12 05:16:54;;;;;;;11.50;4.37;;;16.60;99.40;;;;;;5015214;28;20485;-56
2022/06/12 05:19:23;;;;;;;6.43;5.20;;;16.50;99.70;;;;;;5017210;28;20477;-56
2022/06/12 05:21:50;;;;;;;4.80;4.40;;;16.70;99.30;;;;;;5013385;28;21068;-56
2022/06/12 05:24:17;;;;;;;7.90;5.43;;;16.70;99.30;;;;;;5014660;28;21001;-56
2022/06/12 05:26:46;;;;;;;5.87;5.33;;;16.80;99.70;;;;;;5014850;28;20519;-57
2022/06/12 05:29:18;;;;;;;7.30;5.83;;;16.80;99.90;;;;;;5018212;28;20477;-57
2022/06/12 05:31:46;;;;;;;7.60;5.17;;;16.90;99.90;;;;;;5004274;28;20489;-57
2022/06/12 05:34:13;;;;;;;7.07;5.97;;;16.90;99.90;;;;;;5014682;28;21079;-57
2022/06/12 05:36:40;;;;;;;8.67;5.10;;;17.00;99.90;;;;;;5019060;28;20860;-57
2022/06/12 05:39:07;;;;;;;7.03;6.40;;;17.20;99.90;;;;;;5012137;28;20472;-57
2022/06/12 05:41:34;;;;;;;8.00;6.70;;;17.30;99.90;;;;;;5013374;28;20488;-57
2022/06/12 05:44:01;;;;;;;6.73;6.13;;;17.50;99.90;;;;;;5013528;28;20481;-58
2022/06/12 05:46:30;;;;;;;7.93;7.13;;;17.60;99.90;;;;;;5011859;28;21042;-58
2022/06/12 05:48:57;;;;;;;9.70;7.40;;;17.90;99.90;;;;;;4998787;28;20478;-59
2022/06/12 05:51:24;;;;;;;7.97;7.20;;;18.00;99.90;;;;;;4998376;28;20481;-58
2022/06/12 05:53:51;;;;;;;9.60;6.17;;;18.30;99.90;;;;;;4994166;28;20492;-57
2022/06/12 05:56:23;;;;;;;11.20;6.73;;;18.50;99.90;;;;;;4996597;28;20505;-58
2022/06/12 05:58:49;;;;;;;6.33;5.80;;;18.80;99.90;;;;;;5001216;28;20563;-56
2022/06/12 06:01:19;;;;;;;13.33;6.50;;;19.00;99.90;;;;;;4997880;28;21238;-57
2022/06/12 06:03:48;;;;;;;6.47;5.77;;;19.20;99.90;;;;;;4999259;28;20486;-56
2022/06/12 06:06:19;;;;;;;7.40;6.53;;;19.40;99.50;;;;;;5007644;28;20891;-57
2022/06/12 06:08:46;;;;;;;5.60;5.10;;;19.60;99.00;;;;;;5001550;28;21101;-57
2022/06/12 06:11:13;;;;;;;7.60;6.80;;;19.80;99.00;;;;;;5001064;28;20985;-56
2022/06/12 06:13:40;;;;;;;9.20;6.90;;;20.00;98.90;;;;;;5004642;28;20928;-57
2022/06/12 06:16:08;;;;;;;7.67;6.87;;;20.20;98.60;;;;;;5002270;28;20818;-57
2022/06/12 06:18:36;;;;;;;7.70;6.30;;;20.60;98.00;;;;;;5001227;28;20490;-58
2022/06/12 06:21:04;;;;;;;7.03;5.40;;;20.60;98.30;;;;;;5001070;28;20998;-57
2022/06/12 06:23:31;;;;;;;8.27;6.07;;;21.00;97.80;;;;;;5000754;28;20502;-57
2022/06/12 06:25:57;;;;;;;6.57;5.80;;;21.00;97.70;;;;;;5007334;28;20496;-56
2022/06/12 06:28:24;;;;;;;6.83;6.13;;;21.20;96.90;;;;;;4998899;28;20818;-56
2022/06/12 06:30:51;;;;;;;8.30;6.57;;;21.20;97.20;;;;;;5001415;28;20947;-57
2022/06/12 06:33:18;;;;;;;6.10;5.50;;;21.40;96.50;;;;;;5001625;28;20484;-57
2022/06/12 06:35:44;;;;;;;11.77;6.50;;;21.60;96.30;;;;;;4997253;28;20497;-57
2022/06/12 06:38:13;;;;;;;9.60;7.07;;;21.70;96.50;;;;;;4999908;28;20477;-57
2022/06/12 06:40:40;;;;;;;7.40;6.60;;;21.90;96.30;;;;;;5004368;28;20484;-56
2022/06/12 06:43:08;;;;;;;8.57;5.67;;;22.20;96.00;;;;;;5000678;28;20484;-57
2022/06/12 06:48:21;;;;;;;9.37;5.80;;;22.80;95.70;;;;;;4992419;28;20486;-57
2022/06/12 06:50:48;;;;;;;7.93;6.20;;;22.90;95.10;;;;;;5005314;28;20484;-56
2022/06/12 06:53:17;;;;;;;8.50;6.60;;;22.90;94.70;;;;;;4990755;28;20511;-57
2022/06/12 06:55:44;;;;;;;7.03;6.43;;;23.10;94.40;;;;;;5015644;28;20812;-57
2022/06/12 06:58:15;;;;;;;5.77;5.20;;;23.10;94.70;;;;;;5019357;28;20482;-58
2022/06/12 07:00:44;;;;;;;5.83;4.60;;;23.20;94.30;;;;;;5008882;28;20583;-58
2022/06/12 07:03:12;;;;;;;6.97;5.50;;;23.40;94.80;;;;;;5015575;28;20483;-57
2022/06/12 07:05:39;;;;;;;6.07;5.47;;;23.60;94.60;;;;;;5019351;28;20492;-56
2022/06/12 07:08:07;;;;;;;6.40;4.23;;;23.90;93.60;;;;;;5020949;28;20499;-56
2022/06/12 07:10:35;;;;;;;6.13;4.67;;;24.10;93.80;;;;;;5019807;28;20514;-58
2022/06/12 07:13:03;;;;;;;5.10;4.53;;;24.30;93.00;;;;;;5020466;28;20488;-56
2022/06/12 07:15:31;;;;;;;5.80;5.30;;;24.60;92.60;;;;;;5011167;28;20506;-56
2022/06/12 07:17:59;;;;;;;7.20;5.00;;;24.80;92.50;;;;;;5029036;28;20852;-56
2022/06/12 07:20:29;;;;;;;4.23;3.80;;;24.90;92.80;;;;;;5018563;28;20570;-56
2022/06/12 07:22:56;;;;;;;8.10;4.20;;;25.10;92.20;;;;;;4991887;28;20488;-54
2022/06/12 07:25:24;;;;;;;4.80;4.27;;;25.30;91.70;;;;;;5018902;28;20481;-56
2022/06/12 07:27:52;;;;;;;6.50;5.10;;;25.40;91.40;;;;;;5023322;28;20515;-55
2022/06/12 07:30:22;;;;;;;7.80;4.70;;;25.80;90.80;;;;;;5018379;28;20492;-55
2022/06/12 07:32:49;;;;;;;6.73;4.27;;;25.90;90.40;;;;;;5019983;28;20515;-54
2022/06/12 07:35:16;;;;;;;4.60;3.67;;;26.10;90.40;;;;;;5016582;28;20480;-56
2022/06/12 07:37:43;;;;;;;7.87;4.70;;;26.30;89.10;;;;;;5013491;28;20476;-55
2022/06/12 07:40:16;;;;;;;3.67;3.30;;;26.40;89.00;;;;;;5014397;28;20999;-56
2022/06/12 07:42:43;;;;;;;4.10;3.67;;;26.60;89.30;;;;;;5016233;28;20492;-56
2022/06/12 07:45:12;;;;;;;5.83;4.60;;;26.60;89.50;;;;;;5018239;28;20508;-55
2022/06/12 07:47:40;;;;;;;4.60;4.00;;;26.80;88.50;;;;;;4989645;28;20481;-56
2022/06/12 07:50:08;;;;;;;5.00;4.50;;;26.90;89.00;;;;;;4999354;28;20485;-56
2022/06/12 07:52:37;;;;;;;6.30;4.73;;;27.00;87.50;;;;;;5013863;28;20781;-56
2022/06/12 07:55:04;;;;;;;5.20;4.00;;;27.20;87.00;;;;;;5009842;28;20864;-56
2022/06/12 07:57:31;;;;;;;5.43;4.00;;;27.40;88.00;;;;;;5025339;28;20521;-55
2022/06/12 07:59:58;;;;;;;5.80;3.60;;;27.50;87.50;;;;;;5019106;28;21115;-55
2022/06/12 08:02:26;;;;;;;3.97;3.67;;;27.80;86.30;;;;;;5020265;28;20484;-56
2022/06/12 08:04:53;;;;;;;5.30;3.63;;;28.00;86.70;;;;;;5019176;28;20488;-56
2022/06/12 08:07:19;;;;;;;5.13;3.53;;;28.10;87.80;;;;;;5019510;28;20485;-56
2022/06/12 08:09:46;;;;;;;5.23;3.37;;;28.30;85.90;;;;;;5017842;28;20524;-56
2022/06/12 08:12:13;;;;;;;4.50;3.83;;;28.40;83.80;;;;;;5019267;28;20547;-56
2022/06/12 08:14:39;;;;;;;4.80;3.90;;;28.40;83.80;;;;;;5018630;28;20945;-56
2022/06/12 08:17:06;;;;;;;6.10;4.20;;;28.50;84.50;;;;;;5007046;28;20456;-56
2022/06/12 08:22:20;;;;;;;5.83;3.57;;;28.70;84.00;;;;;;5009345;28;20458;-56
2022/06/12 08:24:47;;;;;;;4.13;3.23;;;29.00;84.50;;;;;;5019433;28;20657;-56
2022/06/12 08:27:14;;;;;;;5.13;3.90;;;29.20;83.40;;;;;;5018567;28;20469;-57
2022/06/12 08:29:42;;;;;;;6.07;3.97;;;29.30;82.10;;;;;;5017707;28;20479;-56
2022/06/12 08:32:14;;;;;;;3.10;2.73;;;29.30;80.60;;;;;;5018714;28;20452;-56
2022/06/12 08:34:45;;;;;;;3.83;3.40;;;29.40;84.70;;;;;;4994680;28;21028;-54
2022/06/12 08:37:15;;;;;;;3.47;3.17;;;29.40;81.00;;;;;;5013705;28;20488;-53
2022/06/12 08:39:42;;;;;;;3.57;3.27;;;29.60;79.90;;;;;;5004079;28;20459;-55
2022/06/12 08:42:14;;;;;;;3.13;2.83;;;29.60;77.40;;;;;;5017455;28;20478;-54
2022/06/12 08:44:49;;;;;;;4.43;3.57;;;29.60;80.10;;;;;;5015740;28;20459;-54
2022/06/12 08:47:28;;;;;;;3.50;3.20;;;29.70;80.40;;;;;;5001027;28;20559;-56
2022/06/12 08:50:04;;;;;;;4.73;3.20;;;29.80;79.50;;;;;;5019078;28;21004;-54
2022/06/12 08:52:36;;;;;;;5.50;3.37;;;30.10;79.90;;;;;;5016899;28;20531;-55
2022/06/12 08:55:12;;;;;;;7.60;3.43;;;30.20;79.30;;;;;;5015083;28;20905;-55
2022/06/12 08:57:47;;;;;;;3.77;3.47;;;30.10;74.80;;;;;;5003322;28;20533;-53
2022/06/12 09:00:18;;;;;;;3.10;2.80;;;30.20;80.00;;;;;;5006056;28;20443;-54
2022/06/12 09:02:45;;;;;;;5.80;2.90;;;30.20;80.70;;;;;;5008220;28;20488;-54
2022/06/12 09:05:20;;;;;;;4.57;3.50;;;30.30;78.80;;;;;;5018337;28;20471;-55
2022/06/12 09:07:51;;;;;;;3.67;3.30;;;30.40;79.20;;;;;;5009481;28;20512;-55
2022/06/12 09:10:34;;;;;;;4.40;4.00;;;30.40;80.20;;;;;;5016977;28;20484;-55
2022/06/12 09:13:12;;;;;;;5.70;3.20;;;30.30;76.60;;;;;;5017755;28;20635;-56
2022/06/12 09:15:44;;;;;;;3.27;2.97;;;30.10;76.40;;;;;;5017422;28;21098;-54
2022/06/12 09:18:24;;;;;;;4.80;3.97;;;30.20;81.40;;;;;;5015475;28;20447;-55
2022/06/12 09:21:03;;;;;;;4.30;3.83;;;30.10;75.20;;;;;;5008351;28;20577;-55
2022/06/12 09:23:37;;;;;;;3.50;3.20;;;30.20;78.70;;;;;;5018134;28;20483;-55
2022/06/12 09:26:14;;;;;;;3.67;3.37;;;29.90;74.80;;;;;;5016232;28;20518;-56
2022/06/12 09:28:45;;;;;;;3.20;2.90;;;29.40;76.90;;;;;;5020318;28;20451;-53
2022/06/12 09:31:18;;;;;;;4.17;3.13;;;29.40;75.70;;;;;;5019648;28;20454;-54
2022/06/12 09:33:53;;;;;;;3.90;3.20;;;29.50;78.90;;;;;;5021463;28;21011;-54
2022/06/12 09:36:34;;;;;;;4.40;2.60;;;29.80;79.00;;;;;;5009468;28;21106;-60
2022/06/12 09:39:08;;;;;;;6.13;2.30;;;29.80;80.70;;;;;;5018472;28;20462;-58
2022/06/12 09:41:45;;;;;;;7.80;2.80;;;30.10;78.20;;;;;;5022103;28;21134;-53
2022/06/12 09:44:16;;;;;;;4.17;3.77;;;30.40;78.30;;;;;;5019207;28;20522;-54
2022/06/12 09:46:56;;;;;;;4.93;2.97;;;30.30;74.70;;;;;;5018541;28;21321;-52
2022/06/12 09:49:32;;;;;;;5.87;3.27;;;30.20;75.70;;;;;;5010039;28;20468;-54
2022/06/12 09:52:33;;;;;;;5.13;2.87;;;30.10;76.80;;;;;;5020916;28;20939;-54
2022/06/12 09:55:05;;;;;;;3.23;2.93;;;29.90;74.50;;;;;;5016988;28;20455;-56
2022/06/12 09:57:41;;;;;;;3.60;2.97;;;29.60;74.30;;;;;;5022101;28;20941;-54
2022/06/12 10:00:12;;;;;;;3.13;2.83;;;29.80;80.70;;;;;;5019366;28;20462;-55
2022/06/12 10:02:47;;;;;;;4.03;3.67;;;29.90;75.30;;;;;;5020178;28;20491;-54
2022/06/12 10:05:17;;;;;;;4.63;2.83;;;29.80;77.20;;;;;;5021159;28;20472;-53
2022/06/12 10:07:53;;;;;;;6.73;2.90;;;29.90;77.30;;;;;;5016568;28;20500;-55
2022/06/12 10:10:25;;;;;;;4.60;3.60;;;29.70;73.60;;;;;;5008524;28;20446;-55
2022/06/12 10:12:58;;;;;;;3.80;2.83;;;29.20;75.00;;;;;;5019169;28;20476;-56
2022/06/12 10:15:30;;;;;;;5.30;3.70;;;29.20;74.70;;;;;;5018824;28;20477;-57
2022/06/12 10:18:03;;;;;;;2.97;2.47;;;29.20;75.00;;;;;;5021545;28;20477;-55
2022/06/12 10:20:33;;;;;;;5.10;2.60;;;29.40;78.80;;;;;;5018312;28;20719;-57
2022/06/12 10:23:02;;;;;;;7.07;3.83;;;29.50;80.20;;;;;;5009889;28;20487;-56
2022/06/12 10:25:43;;;;;;;3.37;3.07;;;30.00;81.00;;;;;;5028152;28;20489;-56
2022/06/12 10:28:22;;;;;;;6.77;2.80;;;30.10;74.70;;;;;;5017396;28;20462;-56
2022/06/12 10:31:06;;;;;;;4.87;2.80;;;30.30;77.70;;;;;;5012393;28;20464;-56
2022/06/12 10:33:46;;;;;;;4.67;2.97;;;30.40;77.70;;;;;;5012811;28;20447;-56
2022/06/12 10:36:21;;;;;;;5.70;3.27;;;30.60;75.20;;;;;;5020855;28;20902;-56
2022/06/12 10:38:50;;;;;;;7.97;2.73;;;30.60;77.10;;;;;;5019538;28;20488;-56
2022/06/12 10:41:25;;;;;;;2.80;2.57;;;31.00;76.90;;;;;;4994122;28;20965;-53
2022/06/12 10:43:54;;;;;;;3.83;2.90;;;30.90;73.60;;;;;;5019911;28;20480;-55
2022/06/12 10:46:24;;;;;;;2.87;2.00;;;31.00;71.60;;;;;;5008964;28;20797;-55
2022/06/12 10:49:01;;;;;;;2.77;2.57;;;30.80;73.10;;;;;;5027797;28;20484;-53
2022/06/12 10:51:34;;;;;;;3.03;2.30;;;30.90;75.90;;;;;;5018578;28;20467;-53
2022/06/12 10:54:12;;;;;;;5.33;3.10;;;30.90;75.80;;;;;;5020946;28;20456;-56
2022/06/12 10:56:46;;;;;;;3.60;3.30;;;30.60;72.40;;;;;;5012684;28;20480;-54
2022/06/12 10:59:28;;;;;;;2.67;2.10;;;30.60;74.50;;;;;;5019162;28;20483;-54
2022/06/12 11:02:17;;;;;;;3.80;2.80;;;30.70;74.50;;;;;;5014482;28;20980;-55
2022/06/12 11:04:55;;;;;;;2.90;2.70;;;30.60;75.00;;;;;;5013835;28;20489;-55
2022/06/12 11:07:29;;;;;;;3.50;2.30;;;30.70;74.80;;;;;;5019875;28;20466;-54
2022/06/12 11:10:14;;;;;;;3.60;2.60;;;30.80;74.60;;;;;;5018051;28;20787;-53
2022/06/12 11:12:54;;;;;;;3.63;2.83;;;30.70;72.90;;;;;;5021859;28;20480;-53
2022/06/12 11:15:35;;;;;;;9.80;2.43;;;30.70;74.80;;;;;;5016126;28;20491;-53
2022/06/12 11:18:17;;;;;;;2.60;2.40;;;30.80;72.40;;;;;;5010005;28;20483;-51
2022/06/12 11:20:50;;;;;;;3.00;2.70;;;30.90;72.70;;;;;;5018436;28;20509;-53
2022/06/12 11:23:48;;;;;;;3.30;2.13;;;30.80;70.70;;;;;;5020397;28;20512;-53
2022/06/12 11:26:33;;;;;;;3.93;2.70;;;30.70;71.20;;;;;;4988505;28;20452;-53
2022/06/12 11:29:13;;;;;;;3.37;2.30;;;30.70;72.90;;;;;;4998595;28;20489;-53
2022/06/12 11:31:51;;;;;;;4.00;2.90;;;30.40;71.60;;;;;;4994628;28;20439;-54
2022/06/12 11:34:41;;;;;;;2.80;2.37;;;30.20;70.10;;;;;;4998365;28;20489;-53
2022/06/12 11:37:24;;;;;;;3.73;2.47;;;30.30;70.20;;;;;;5000260;28;20818;-52
2022/06/12 11:40:01;;;;;;;5.90;1.80;;;30.30;71.00;;;;;;4998688;28;20500;-52
2022/06/12 11:42:41;;;;;;;5.93;2.70;;;30.10;70.80;;;;;;4998084;28;20496;-52
2022/06/12 11:45:20;;;;;;;2.17;1.97;;;30.10;68.00;;;;;;4993663;28;20444;-53
2022/06/12 11:48:10;;;;;;;2.73;2.37;;;30.10;71.90;;;;;;4978573;28;20492;-52
2022/06/12 11:50:43;;;;;;;2.90;2.70;;;30.20;71.60;;;;;;4997844;28;20819;-51
2022/06/12 11:53:31;;;;;;;6.70;3.73;;;30.40;72.10;;;;;;4991043;28;20447;-52
2022/06/12 11:56:01;;;;;;;2.93;2.57;;;30.50;71.80;;;;;;5000264;28;20456;-51
2022/06/12 11:58:43;;;;;;;4.40;2.30;;;30.60;74.10;;;;;;4998916;28;20478;-52
2022/06/12 12:01:20;;;;;;;2.00;1.60;;;30.70;73.70;;;;;;4987479;28;20477;-52
2022/06/12 12:04:16;;;;;;;2.60;2.40;;;31.00;69.30;;;;;;4997455;28;20489;-51
2022/06/12 12:06:59;;;;;;;2.87;2.50;;;31.20;68.50;;;;;;4994815;28;20504;-52
2022/06/12 12:09:39;;;;;;;6.60;2.60;;;31.40;71.30;;;;;;5003593;28;20484;-51
2022/06/12 12:12:10;;;;;;;3.30;2.37;;;31.40;68.00;;;;;;4998613;28;20484;-51
2022/06/12 12:14:44;;;;;;;4.80;2.17;;;31.40;70.70;;;;;;4992767;28;20496;-52
2022/06/12 12:17:14;;;;;;;3.80;2.67;;;31.40;70.50;;;;;;5012098;28;20481;-53
2022/06/12 12:19:45;;;;;;;4.23;3.13;;;31.40;67.40;;;;;;5023448;28;20470;-51
2022/06/12 12:22:19;;;;;;;6.77;2.87;;;31.40;73.50;;;;;;5018455;28;20447;-52
2022/06/12 12:24:49;;;;;;;3.70;2.60;;;31.40;67.20;;;;;;5013539;28;20563;-52
2022/06/12 12:27:36;;;;;;;2.90;2.50;;;31.40;66.90;;;;;;5002655;28;20454;-53
2022/06/12 12:30:15;;;;;;;4.30;2.10;;;31.40;70.10;;;;;;5005059;28;20484;-51
2022/06/12 12:32:42;;;;;;;3.43;2.90;;;31.40;68.90;;;;;;5002718;28;21172;-52
2022/06/12 12:41:11;;;;;;;3.83;2.80;;;31.10;66.80;;;;;;5012380;28;20460;-52
2022/06/12 12:43:26;;;;;;;2.60;2.40;;;30.60;70.40;;;;;;5008107;28;20574;-52
2022/06/12 12:46:02;;;;;;;3.00;2.70;;;30.60;69.40;;;;;;5009506;28;20997;-52
2022/06/12 12:48:40;;;;;;;3.33;2.83;;;30.50;69.10;;;;;;5006643;28;20458;-52
2022/06/12 12:51:07;;;;;;;3.00;2.80;;;30.70;72.20;;;;;;5004899;28;20850;-53
2022/06/12 12:53:38;;;;;;;4.53;2.10;;;30.70;72.00;;;;;;4999802;28;20530;-52
2022/06/12 12:56:08;;;;;;;5.40;2.60;;;30.70;70.00;;;;;;5015127;28;20455;-53
2022/06/12 12:58:38;;;;;;;2.50;2.30;;;30.40;67.80;;;;;;5011722;28;20460;-52
2022/06/12 13:01:11;;;;;;;3.10;2.20;;;30.40;70.80;;;;;;5011431;28;20971;-52
2022/06/12 13:03:42;;;;;;;3.27;2.47;;;30.50;70.90;;;;;;5001080;28;20773;-52
2022/06/12 13:06:49;;;;;;;5.30;2.60;;;30.80;69.30;;;;;;5011736;28;20484;-52
2022/06/12 13:09:33;;;;;;;3.50;2.30;;;30.60;68.20;;;;;;4948790;28;20906;-52
2022/06/12 13:12:13;;;;;;;3.33;1.83;;;30.60;68.40;;;;;;4940148;28;20465;-53
2022/06/12 13:14:55;;;;;;;3.17;2.17;;;30.50;67.90;;;;;;4988326;28;20585;-52
2022/06/12 13:17:33;;;;;;;3.73;2.23;;;30.40;68.50;;;;;;5016243;28;20480;-52
2022/06/12 13:20:14;;;;;;;3.90;2.27;;;30.20;68.30;;;;;;5008942;28;20894;-52
2022/06/12 13:22:57;;;;;;;2.73;1.90;;;30.30;73.30;;;;;;5011823;28;20458;-51
2022/06/12 13:25:30;;;;;;;4.83;2.40;;;30.40;71.70;;;;;;5001309;28;20476;-52
2022/06/12 13:27:59;;;;;;;2.40;1.70;;;30.80;69.90;;;;;;5011971;28;20455;-52
2022/06/12 13:30:29;;;;;;;3.57;2.00;;;30.80;70.60;;;;;;5010793;28;20493;-53
2022/06/12 13:33:07;;;;;;;2.50;2.00;;;30.80;67.20;;;;;;5012242;28;21527;-52
2022/06/12 13:35:43;;;;;;;2.80;2.10;;;30.80;69.00;;;;;;5016081;28;21010;-51
2022/06/12 13:38:19;;;;;;;2.20;2.00;;;30.80;67.20;;;;;;5005988;28;20514;-52